sensor_id;sensor_type;location;lat;lon;timestamp;P1;durP1;ratioP1;P2;durP2;ratioP2
62927;SDS011;51070;52.236;-0.892;2024-01-25T00:01:37;24.00;;;5.80;;
62927;SDS011;51070;52.236;-0.892;2024-01-25T00:04:03;16.00;;;5.00;;
62927;SDS011;51070;52.236;-0.892;2024-01-25T00:06:28;26.80;;;8.30;;
62927;SDS011;51070;52.236;-0.892;2024-01-25T00:08:54;18.70;;;5.70;;
62927;SDS011;51070;52.236;-0.892;2024-01-25T00:11:19;23.00;;;5.60;;
62927;SDS011;51070;52.236;-0.892;2024-01-25T00:13:45;22.20;;;5.30;;
62927;SDS011;51070;52.236;-0.892;2024-01-25T00:16:10;21.60;;;5.80;;
62927;SDS011;51070;52.236;-0.892;2024-01-25T00:18:35;15.60;;;5.30;;
62927;SDS011;51070;52.236;-0.892;2024-01-25T00:21:01;19.50;;;6.10;;
62927;SDS011;51070;52.236;-0.892;2024-01-25T00:23:26;21.80;;;5.80;;
62927;SDS011;51070;52.236;-0.892;2024-01-25T00:25:52;22.00;;;5.80;;
62927;SDS011;51070;52.236;-0.892;2024-01-25T00:28:18;17.40;;;5.20;;
62927;SDS011;51070;52.236;-0.892;2024-01-25T00:30:44;19.00;;;5.70;;
62927;SDS011;51070;52.236;-0.892;2024-01-25T00:33:09;21.50;;;5.50;;
62927;SDS011;51070;52.236;-0.892;2024-01-25T00:35:35;23.00;;;5.60;;
62927;SDS011;51070;52.236;-0.892;2024-01-25T00:38:01;19.40;;;5.60;;
62927;SDS011;51070;52.236;-0.892;2024-01-25T00:40:27;22.50;;;5.80;;
62927;SDS011;51070;52.236;-0.892;2024-01-25T00:42:53;22.90;;;4.90;;
62927;SDS011;51070;52.236;-0.892;2024-01-25T00:45:22;19.40;;;5.30;;
62927;SDS011;51070;52.236;-0.892;2024-01-25T00:47:49;17.20;;;5.30;;
62927;SDS011;51070;52.236;-0.892;2024-01-25T00:50:15;16.30;;;4.50;;
62927;SDS011;51070;52.236;-0.892;2024-01-25T00:52:43;23.10;;;5.60;;
62927;SDS011;51070;52.236;-0.892;2024-01-25T00:55:09;17.40;;;5.00;;
62927;SDS011;51070;52.236;-0.892;2024-01-25T00:57:36;20.80;;;5.10;;
62927;SDS011;51070;52.236;-0.892;2024-01-25T01:00:02;27.50;;;5.40;;
62927;SDS011;51070;52.236;-0.892;2024-01-25T01:02:29;24.20;;;6.60;;
62927;SDS011;51070;52.236;-0.892;2024-01-25T01:05:00;19.30;;;4.90;;
62927;SDS011;51070;52.236;-0.892;2024-01-25T01:07:26;17.80;;;5.60;;
62927;SDS011;51070;52.236;-0.892;2024-01-25T01:09:52;20.90;;;4.50;;
62927;SDS011;51070;52.236;-0.892;2024-01-25T01:12:18;21.30;;;4.80;;
62927;SDS011;51070;52.236;-0.892;2024-01-25T01:14:43;18.40;;;4.30;;
62927;SDS011;51070;52.236;-0.892;2024-01-25T01:17:09;21.70;;;6.10;;
62927;SDS011;51070;52.236;-0.892;2024-01-25T01:19:34;18.70;;;5.50;;
62927;SDS011;51070;52.236;-0.892;2024-01-25T01:22:00;22.70;;;5.50;;
62927;SDS011;51070;52.236;-0.892;2024-01-25T01:24:25;17.40;;;5.30;;
62927;SDS011;51070;52.236;-0.892;2024-01-25T01:26:51;19.00;;;6.40;;
62927;SDS011;51070;52.236;-0.892;2024-01-25T01:29:17;23.40;;;6.30;;
62927;SDS011;51070;52.236;-0.892;2024-01-25T01:31:43;16.60;;;4.60;;
62927;SDS011;51070;52.236;-0.892;2024-01-25T01:34:09;12.50;;;4.50;;
62927;SDS011;51070;52.236;-0.892;2024-01-25T01:36:35;18.30;;;4.80;;
62927;SDS011;51070;52.236;-0.892;2024-01-25T01:39:00;13.20;;;3.90;;
62927;SDS011;51070;52.236;-0.892;2024-01-25T01:41:26;20.00;;;6.80;;
62927;SDS011;51070;52.236;-0.892;2024-01-25T01:43:54;19.40;;;5.50;;
62927;SDS011;51070;52.236;-0.892;2024-01-25T01:49:05;19.60;;;5.20;;
62927;SDS011;51070;52.236;-0.892;2024-01-25T01:51:34;22.70;;;4.90;;
62927;SDS011;51070;52.236;-0.892;2024-01-25T01:54:03;19.90;;;6.40;;
62927;SDS011;51070;52.236;-0.892;2024-01-25T01:56:31;21.10;;;5.60;;
62927;SDS011;51070;52.236;-0.892;2024-01-25T01:59:00;15.30;;;4.60;;
62927;SDS011;51070;52.236;-0.892;2024-01-25T02:01:27;22.30;;;5.50;;
62927;SDS011;51070;52.236;-0.892;2024-01-25T02:03:53;19.40;;;5.60;;
62927;SDS011;51070;52.236;-0.892;2024-01-25T02:06:20;22.40;;;4.80;;
62927;SDS011;51070;52.236;-0.892;2024-01-25T02:08:47;28.00;;;6.70;;
62927;SDS011;51070;52.236;-0.892;2024-01-25T02:11:13;21.00;;;5.70;;
62927;SDS011;51070;52.236;-0.892;2024-01-25T02:13:39;25.00;;;6.00;;
62927;SDS011;51070;52.236;-0.892;2024-01-25T02:16:06;16.10;;;4.80;;
62927;SDS011;51070;52.236;-0.892;2024-01-25T02:18:33;20.30;;;5.80;;
62927;SDS011;51070;52.236;-0.892;2024-01-25T02:20:58;25.90;;;6.70;;
62927;SDS011;51070;52.236;-0.892;2024-01-25T02:23:24;17.10;;;5.00;;
62927;SDS011;51070;52.236;-0.892;2024-01-25T02:25:49;20.40;;;5.40;;
62927;SDS011;51070;52.236;-0.892;2024-01-25T02:28:15;25.50;;;4.90;;
62927;SDS011;51070;52.236;-0.892;2024-01-25T02:30:40;20.00;;;4.90;;
62927;SDS011;51070;52.236;-0.892;2024-01-25T02:33:06;13.30;;;5.90;;
62927;SDS011;51070;52.236;-0.892;2024-01-25T02:35:31;17.20;;;5.10;;
62927;SDS011;51070;52.236;-0.892;2024-01-25T02:37:57;21.70;;;5.40;;
62927;SDS011;51070;52.236;-0.892;2024-01-25T02:40:23;17.90;;;5.30;;
62927;SDS011;51070;52.236;-0.892;2024-01-25T02:42:48;16.80;;;4.80;;
62927;SDS011;51070;52.236;-0.892;2024-01-25T02:45:14;21.20;;;5.30;;
62927;SDS011;51070;52.236;-0.892;2024-01-25T02:47:39;11.90;;;4.40;;
62927;SDS011;51070;52.236;-0.892;2024-01-25T02:50:05;15.20;;;5.40;;
62927;SDS011;51070;52.236;-0.892;2024-01-25T02:52:31;13.90;;;5.60;;
62927;SDS011;51070;52.236;-0.892;2024-01-25T02:54:56;14.90;;;4.60;;
62927;SDS011;51070;52.236;-0.892;2024-01-25T02:57:22;20.10;;;4.50;;
62927;SDS011;51070;52.236;-0.892;2024-01-25T02:59:48;17.20;;;5.40;;
62927;SDS011;51070;52.236;-0.892;2024-01-25T03:02:13;12.50;;;3.20;;
62927;SDS011;51070;52.236;-0.892;2024-01-25T03:04:39;11.60;;;4.10;;
62927;SDS011;51070;52.236;-0.892;2024-01-25T03:07:04;11.90;;;4.20;;
62927;SDS011;51070;52.236;-0.892;2024-01-25T03:09:29;12.50;;;3.80;;
62927;SDS011;51070;52.236;-0.892;2024-01-25T03:11:55;13.00;;;4.90;;
62927;SDS011;51070;52.236;-0.892;2024-01-25T03:14:20;12.90;;;3.80;;
62927;SDS011;51070;52.236;-0.892;2024-01-25T03:16:46;11.40;;;4.10;;
62927;SDS011;51070;52.236;-0.892;2024-01-25T03:19:11;12.70;;;4.30;;
62927;SDS011;51070;52.236;-0.892;2024-01-25T03:21:37;16.50;;;4.60;;
62927;SDS011;51070;52.236;-0.892;2024-01-25T03:24:02;11.90;;;5.20;;
62927;SDS011;51070;52.236;-0.892;2024-01-25T03:26:28;14.50;;;5.30;;
62927;SDS011;51070;52.236;-0.892;2024-01-25T03:28:53;16.00;;;5.20;;
62927;SDS011;51070;52.236;-0.892;2024-01-25T03:31:19;20.00;;;6.00;;
62927;SDS011;51070;52.236;-0.892;2024-01-25T03:33:44;14.20;;;5.10;;
62927;SDS011;51070;52.236;-0.892;2024-01-25T03:36:13;19.10;;;6.50;;
62927;SDS011;51070;52.236;-0.892;2024-01-25T03:38:39;11.60;;;5.20;;
62927;SDS011;51070;52.236;-0.892;2024-01-25T03:41:04;16.00;;;6.40;;
62927;SDS011;51070;52.236;-0.892;2024-01-25T03:43:29;15.60;;;5.10;;
62927;SDS011;51070;52.236;-0.892;2024-01-25T03:45:55;18.20;;;6.50;;
62927;SDS011;51070;52.236;-0.892;2024-01-25T03:48:20;14.40;;;6.70;;
62927;SDS011;51070;52.236;-0.892;2024-01-25T03:50:47;15.80;;;5.60;;
62927;SDS011;51070;52.236;-0.892;2024-01-25T03:53:12;18.70;;;5.90;;
62927;SDS011;51070;52.236;-0.892;2024-01-25T03:55:38;14.70;;;5.40;;
62927;SDS011;51070;52.236;-0.892;2024-01-25T03:58:03;14.00;;;5.00;;
62927;SDS011;51070;52.236;-0.892;2024-01-25T04:00:29;15.30;;;5.20;;
62927;SDS011;51070;52.236;-0.892;2024-01-25T04:02:55;12.80;;;6.50;;
62927;SDS011;51070;52.236;-0.892;2024-01-25T04:05:20;15.10;;;6.70;;
62927;SDS011;51070;52.236;-0.892;2024-01-25T04:07:46;12.20;;;6.00;;
62927;SDS011;51070;52.236;-0.892;2024-01-25T04:10:11;18.30;;;6.50;;
62927;SDS011;51070;52.236;-0.892;2024-01-25T04:12:36;12.90;;;5.00;;
62927;SDS011;51070;52.236;-0.892;2024-01-25T04:15:02;13.40;;;5.20;;
62927;SDS011;51070;52.236;-0.892;2024-01-25T04:17:28;12.80;;;5.70;;
62927;SDS011;51070;52.236;-0.892;2024-01-25T04:19:53;16.80;;;6.30;;
62927;SDS011;51070;52.236;-0.892;2024-01-25T04:22:20;15.00;;;5.70;;
62927;SDS011;51070;52.236;-0.892;2024-01-25T04:24:45;21.70;;;7.60;;
62927;SDS011;51070;52.236;-0.892;2024-01-25T04:27:13;14.60;;;5.60;;
62927;SDS011;51070;52.236;-0.892;2024-01-25T04:29:42;13.20;;;5.00;;
62927;SDS011;51070;52.236;-0.892;2024-01-25T04:32:08;14.30;;;6.00;;
62927;SDS011;51070;52.236;-0.892;2024-01-25T04:34:34;22.10;;;7.10;;
62927;SDS011;51070;52.236;-0.892;2024-01-25T04:37:00;15.40;;;5.20;;
62927;SDS011;51070;52.236;-0.892;2024-01-25T04:39:26;15.30;;;5.80;;
62927;SDS011;51070;52.236;-0.892;2024-01-25T04:41:51;20.00;;;5.60;;
62927;SDS011;51070;52.236;-0.892;2024-01-25T04:44:17;16.00;;;5.50;;
62927;SDS011;51070;52.236;-0.892;2024-01-25T04:46:43;19.40;;;6.30;;
62927;SDS011;51070;52.236;-0.892;2024-01-25T04:49:08;17.80;;;6.00;;
62927;SDS011;51070;52.236;-0.892;2024-01-25T04:51:34;14.30;;;6.50;;
62927;SDS011;51070;52.236;-0.892;2024-01-25T04:54:00;14.20;;;5.00;;
62927;SDS011;51070;52.236;-0.892;2024-01-25T04:56:26;14.20;;;4.80;;
62927;SDS011;51070;52.236;-0.892;2024-01-25T04:58:51;24.20;;;5.60;;
62927;SDS011;51070;52.236;-0.892;2024-01-25T05:01:17;22.20;;;5.10;;
62927;SDS011;51070;52.236;-0.892;2024-01-25T05:03:42;15.70;;;4.90;;
62927;SDS011;51070;52.236;-0.892;2024-01-25T05:06:07;13.60;;;6.60;;
62927;SDS011;51070;52.236;-0.892;2024-01-25T05:08:33;18.10;;;5.10;;
62927;SDS011;51070;52.236;-0.892;2024-01-25T05:10:58;16.00;;;5.60;;
62927;SDS011;51070;52.236;-0.892;2024-01-25T05:13:24;17.50;;;4.80;;
62927;SDS011;51070;52.236;-0.892;2024-01-25T05:15:50;12.00;;;4.40;;
62927;SDS011;51070;52.236;-0.892;2024-01-25T05:18:15;15.20;;;4.60;;
62927;SDS011;51070;52.236;-0.892;2024-01-25T05:20:41;13.60;;;3.80;;
62927;SDS011;51070;52.236;-0.892;2024-01-25T05:23:06;18.60;;;5.90;;
62927;SDS011;51070;52.236;-0.892;2024-01-25T05:25:32;20.80;;;4.30;;
62927;SDS011;51070;52.236;-0.892;2024-01-25T05:27:57;18.10;;;4.30;;
62927;SDS011;51070;52.236;-0.892;2024-01-25T05:30:26;14.10;;;4.30;;
62927;SDS011;51070;52.236;-0.892;2024-01-25T05:32:52;17.60;;;4.90;;
62927;SDS011;51070;52.236;-0.892;2024-01-25T05:35:19;13.90;;;3.80;;
62927;SDS011;51070;52.236;-0.892;2024-01-25T05:37:45;12.40;;;3.90;;
62927;SDS011;51070;52.236;-0.892;2024-01-25T05:40:10;21.10;;;4.80;;
62927;SDS011;51070;52.236;-0.892;2024-01-25T05:42:37;12.40;;;3.60;;
62927;SDS011;51070;52.236;-0.892;2024-01-25T05:45:03;19.90;;;3.80;;
62927;SDS011;51070;52.236;-0.892;2024-01-25T05:47:32;13.70;;;3.70;;
62927;SDS011;51070;52.236;-0.892;2024-01-25T05:49:59;19.90;;;4.80;;
62927;SDS011;51070;52.236;-0.892;2024-01-25T05:52:25;24.40;;;4.70;;
62927;SDS011;51070;52.236;-0.892;2024-01-25T05:54:50;16.90;;;4.00;;
62927;SDS011;51070;52.236;-0.892;2024-01-25T05:57:16;21.00;;;5.40;;
62927;SDS011;51070;52.236;-0.892;2024-01-25T05:59:45;17.90;;;3.20;;
62927;SDS011;51070;52.236;-0.892;2024-01-25T06:02:11;12.60;;;3.40;;
62927;SDS011;51070;52.236;-0.892;2024-01-25T06:04:36;21.40;;;4.90;;
62927;SDS011;51070;52.236;-0.892;2024-01-25T06:07:02;14.70;;;4.00;;
62927;SDS011;51070;52.236;-0.892;2024-01-25T06:09:28;20.10;;;4.50;;
62927;SDS011;51070;52.236;-0.892;2024-01-25T06:11:54;17.20;;;4.90;;
62927;SDS011;51070;52.236;-0.892;2024-01-25T06:14:19;9.90;;;3.10;;
62927;SDS011;51070;52.236;-0.892;2024-01-25T06:16:45;15.40;;;3.60;;
62927;SDS011;51070;52.236;-0.892;2024-01-25T06:19:10;19.00;;;4.40;;
62927;SDS011;51070;52.236;-0.892;2024-01-25T06:21:36;23.80;;;4.30;;
62927;SDS011;51070;52.236;-0.892;2024-01-25T06:24:05;14.30;;;3.90;;
62927;SDS011;51070;52.236;-0.892;2024-01-25T06:26:31;19.40;;;4.20;;
62927;SDS011;51070;52.236;-0.892;2024-01-25T06:28:56;14.60;;;3.50;;
62927;SDS011;51070;52.236;-0.892;2024-01-25T06:31:22;14.80;;;4.10;;
62927;SDS011;51070;52.236;-0.892;2024-01-25T06:33:49;15.30;;;3.30;;
62927;SDS011;51070;52.236;-0.892;2024-01-25T06:36:17;16.70;;;4.30;;
62927;SDS011;51070;52.236;-0.892;2024-01-25T06:38:46;16.80;;;4.20;;
62927;SDS011;51070;52.236;-0.892;2024-01-25T06:41:14;13.90;;;4.10;;
62927;SDS011;51070;52.236;-0.892;2024-01-25T06:43:43;17.60;;;4.60;;
62927;SDS011;51070;52.236;-0.892;2024-01-25T06:46:09;14.60;;;3.90;;
62927;SDS011;51070;52.236;-0.892;2024-01-25T06:48:34;18.30;;;4.00;;
62927;SDS011;51070;52.236;-0.892;2024-01-25T06:51:01;11.50;;;3.70;;
62927;SDS011;51070;52.236;-0.892;2024-01-25T06:53:26;19.60;;;4.40;;
62927;SDS011;51070;52.236;-0.892;2024-01-25T06:55:51;23.40;;;4.60;;
62927;SDS011;51070;52.236;-0.892;2024-01-25T06:58:17;22.50;;;4.70;;
62927;SDS011;51070;52.236;-0.892;2024-01-25T07:00:43;14.20;;;4.90;;
62927;SDS011;51070;52.236;-0.892;2024-01-25T07:03:10;12.10;;;3.90;;
62927;SDS011;51070;52.236;-0.892;2024-01-25T07:05:36;22.20;;;4.20;;
62927;SDS011;51070;52.236;-0.892;2024-01-25T07:08:01;13.60;;;5.30;;
62927;SDS011;51070;52.236;-0.892;2024-01-25T07:10:27;17.80;;;3.90;;
62927;SDS011;51070;52.236;-0.892;2024-01-25T07:12:53;19.30;;;5.30;;
62927;SDS011;51070;52.236;-0.892;2024-01-25T07:15:19;20.00;;;4.80;;
62927;SDS011;51070;52.236;-0.892;2024-01-25T07:17:45;19.90;;;5.30;;
62927;SDS011;51070;52.236;-0.892;2024-01-25T07:20:10;20.10;;;4.20;;
62927;SDS011;51070;52.236;-0.892;2024-01-25T07:22:36;23.30;;;4.60;;
62927;SDS011;51070;52.236;-0.892;2024-01-25T07:25:02;20.30;;;4.90;;
62927;SDS011;51070;52.236;-0.892;2024-01-25T07:27:27;22.10;;;5.30;;
62927;SDS011;51070;52.236;-0.892;2024-01-25T07:29:53;22.70;;;5.40;;
62927;SDS011;51070;52.236;-0.892;2024-01-25T07:32:19;17.40;;;4.70;;
62927;SDS011;51070;52.236;-0.892;2024-01-25T07:34:45;23.40;;;5.90;;
62927;SDS011;51070;52.236;-0.892;2024-01-25T07:37:11;22.20;;;6.40;;
62927;SDS011;51070;52.236;-0.892;2024-01-25T07:39:37;19.10;;;3.90;;
62927;SDS011;51070;52.236;-0.892;2024-01-25T07:42:03;24.10;;;4.90;;
62927;SDS011;51070;52.236;-0.892;2024-01-25T07:44:28;19.00;;;4.20;;
62927;SDS011;51070;52.236;-0.892;2024-01-25T07:46:54;19.30;;;5.00;;
62927;SDS011;51070;52.236;-0.892;2024-01-25T07:49:19;13.30;;;4.20;;
62927;SDS011;51070;52.236;-0.892;2024-01-25T07:51:45;15.40;;;4.50;;
62927;SDS011;51070;52.236;-0.892;2024-01-25T07:54:10;11.80;;;4.20;;
62927;SDS011;51070;52.236;-0.892;2024-01-25T07:56:36;19.40;;;5.60;;
62927;SDS011;51070;52.236;-0.892;2024-01-25T07:59:01;18.10;;;5.50;;
62927;SDS011;51070;52.236;-0.892;2024-01-25T08:01:26;16.50;;;5.80;;
62927;SDS011;51070;52.236;-0.892;2024-01-25T08:03:52;12.70;;;4.60;;
62927;SDS011;51070;52.236;-0.892;2024-01-25T08:06:17;21.20;;;6.40;;
62927;SDS011;51070;52.236;-0.892;2024-01-25T08:08:43;11.50;;;4.20;;
62927;SDS011;51070;52.236;-0.892;2024-01-25T08:11:08;14.30;;;4.90;;
62927;SDS011;51070;52.236;-0.892;2024-01-25T08:13:34;12.60;;;4.90;;
62927;SDS011;51070;52.236;-0.892;2024-01-25T08:16:00;16.20;;;4.80;;
62927;SDS011;51070;52.236;-0.892;2024-01-25T08:18:26;22.90;;;6.00;;
62927;SDS011;51070;52.236;-0.892;2024-01-25T08:23:20;9.20;;;4.10;;
62927;SDS011;51070;52.236;-0.892;2024-01-25T08:25:45;12.20;;;4.50;;
62927;SDS011;51070;52.236;-0.892;2024-01-25T08:28:11;20.50;;;6.20;;
62927;SDS011;51070;52.236;-0.892;2024-01-25T08:30:36;18.70;;;6.20;;
62927;SDS011;51070;52.236;-0.892;2024-01-25T08:33:02;14.30;;;5.40;;
62927;SDS011;51070;52.236;-0.892;2024-01-25T08:35:28;15.10;;;5.10;;
62927;SDS011;51070;52.236;-0.892;2024-01-25T08:37:55;19.50;;;5.50;;
62927;SDS011;51070;52.236;-0.892;2024-01-25T08:40:20;13.80;;;4.90;;
62927;SDS011;51070;52.236;-0.892;2024-01-25T08:42:46;12.60;;;5.50;;
62927;SDS011;51070;52.236;-0.892;2024-01-25T08:45:12;14.40;;;4.90;;
62927;SDS011;51070;52.236;-0.892;2024-01-25T08:47:38;13.90;;;5.20;;
62927;SDS011;51070;52.236;-0.892;2024-01-25T08:50:04;12.70;;;4.70;;
62927;SDS011;51070;52.236;-0.892;2024-01-25T08:52:36;9.60;;;4.60;;
62927;SDS011;51070;52.236;-0.892;2024-01-25T08:55:05;13.40;;;5.40;;
62927;SDS011;51070;52.236;-0.892;2024-01-25T08:57:31;7.80;;;4.60;;
62927;SDS011;51070;52.236;-0.892;2024-01-25T08:59:57;15.80;;;4.60;;
62927;SDS011;51070;52.236;-0.892;2024-01-25T09:02:24;9.70;;;4.70;;
62927;SDS011;51070;52.236;-0.892;2024-01-25T09:04:52;10.70;;;4.30;;
62927;SDS011;51070;52.236;-0.892;2024-01-25T09:07:19;11.00;;;4.60;;
62927;SDS011;51070;52.236;-0.892;2024-01-25T09:09:45;11.00;;;4.90;;
62927;SDS011;51070;52.236;-0.892;2024-01-25T09:12:10;12.90;;;5.00;;
62927;SDS011;51070;52.236;-0.892;2024-01-25T09:14:37;8.40;;;4.00;;
62927;SDS011;51070;52.236;-0.892;2024-01-25T09:17:07;11.80;;;4.20;;
62927;SDS011;51070;52.236;-0.892;2024-01-25T09:19:34;14.20;;;4.60;;
62927;SDS011;51070;52.236;-0.892;2024-01-25T09:22:00;9.50;;;4.40;;
62927;SDS011;51070;52.236;-0.892;2024-01-25T09:24:29;15.60;;;4.70;;
62927;SDS011;51070;52.236;-0.892;2024-01-25T09:26:56;10.30;;;4.50;;
62927;SDS011;51070;52.236;-0.892;2024-01-25T09:29:24;10.80;;;4.60;;
62927;SDS011;51070;52.236;-0.892;2024-01-25T09:31:49;11.30;;;4.50;;
62927;SDS011;51070;52.236;-0.892;2024-01-25T09:34:15;11.50;;;5.30;;
62927;SDS011;51070;52.236;-0.892;2024-01-25T09:36:40;6.80;;;4.00;;
62927;SDS011;51070;52.236;-0.892;2024-01-25T09:39:06;11.20;;;5.00;;
62927;SDS011;51070;52.236;-0.892;2024-01-25T09:41:31;9.20;;;4.00;;
62927;SDS011;51070;52.236;-0.892;2024-01-25T09:43:57;8.00;;;3.90;;
62927;SDS011;51070;52.236;-0.892;2024-01-25T09:46:22;11.30;;;3.50;;
62927;SDS011;51070;52.236;-0.892;2024-01-25T09:48:48;9.00;;;4.40;;
62927;SDS011;51070;52.236;-0.892;2024-01-25T09:51:14;10.50;;;4.30;;
62927;SDS011;51070;52.236;-0.892;2024-01-25T09:53:43;7.10;;;3.70;;
62927;SDS011;51070;52.236;-0.892;2024-01-25T09:56:11;7.50;;;4.40;;
62927;SDS011;51070;52.236;-0.892;2024-01-25T09:58:39;8.00;;;4.20;;
62927;SDS011;51070;52.236;-0.892;2024-01-25T10:01:10;8.10;;;3.80;;
62927;SDS011;51070;52.236;-0.892;2024-01-25T10:03:37;7.50;;;4.10;;
62927;SDS011;51070;52.236;-0.892;2024-01-25T10:06:13;6.10;;;3.10;;
62927;SDS011;51070;52.236;-0.892;2024-01-25T10:08:39;10.00;;;4.30;;
62927;SDS011;51070;52.236;-0.892;2024-01-25T10:11:05;4.10;;;2.30;;
62927;SDS011;51070;52.236;-0.892;2024-01-25T10:13:39;4.90;;;2.70;;
62927;SDS011;51070;52.236;-0.892;2024-01-25T10:16:15;8.70;;;3.90;;
62927;SDS011;51070;52.236;-0.892;2024-01-25T10:18:42;10.00;;;4.30;;
62927;SDS011;51070;52.236;-0.892;2024-01-25T10:21:09;12.60;;;4.20;;
62927;SDS011;51070;52.236;-0.892;2024-01-25T10:23:35;6.90;;;4.10;;
62927;SDS011;51070;52.236;-0.892;2024-01-25T10:26:01;5.20;;;3.00;;
62927;SDS011;51070;52.236;-0.892;2024-01-25T10:28:27;10.00;;;4.40;;
62927;SDS011;51070;52.236;-0.892;2024-01-25T10:30:55;5.80;;;3.30;;
62927;SDS011;51070;52.236;-0.892;2024-01-25T10:33:23;6.80;;;4.60;;
62927;SDS011;51070;52.236;-0.892;2024-01-25T10:35:51;7.60;;;3.50;;
62927;SDS011;51070;52.236;-0.892;2024-01-25T10:38:21;4.80;;;2.50;;
62927;SDS011;51070;52.236;-0.892;2024-01-25T10:40:47;6.70;;;3.10;;
62927;SDS011;51070;52.236;-0.892;2024-01-25T10:43:12;6.40;;;3.50;;
62927;SDS011;51070;52.236;-0.892;2024-01-25T10:45:38;4.30;;;3.10;;
62927;SDS011;51070;52.236;-0.892;2024-01-25T10:48:04;6.20;;;2.90;;
62927;SDS011;51070;52.236;-0.892;2024-01-25T10:50:33;8.40;;;2.70;;
62927;SDS011;51070;52.236;-0.892;2024-01-25T10:52:58;4.20;;;2.90;;
62927;SDS011;51070;52.236;-0.892;2024-01-25T10:55:25;5.30;;;2.90;;
62927;SDS011;51070;52.236;-0.892;2024-01-25T10:57:52;7.30;;;3.20;;
62927;SDS011;51070;52.236;-0.892;2024-01-25T11:00:17;5.50;;;3.10;;
62927;SDS011;51070;52.236;-0.892;2024-01-25T11:02:44;7.70;;;2.80;;
62927;SDS011;51070;52.236;-0.892;2024-01-25T11:05:11;7.50;;;3.00;;
62927;SDS011;51070;52.236;-0.892;2024-01-25T11:07:44;5.20;;;2.60;;
62927;SDS011;51070;52.236;-0.892;2024-01-25T11:10:12;6.70;;;2.70;;
62927;SDS011;51070;52.236;-0.892;2024-01-25T11:12:57;6.40;;;2.80;;
62927;SDS011;51070;52.236;-0.892;2024-01-25T11:15:29;4.70;;;2.20;;
62927;SDS011;51070;52.236;-0.892;2024-01-25T11:17:56;3.30;;;1.80;;
62927;SDS011;51070;52.236;-0.892;2024-01-25T11:20:23;6.30;;;2.40;;
62927;SDS011;51070;52.236;-0.892;2024-01-25T11:22:56;4.10;;;2.20;;
62927;SDS011;51070;52.236;-0.892;2024-01-25T11:25:26;2.30;;;1.50;;
62927;SDS011;51070;52.236;-0.892;2024-01-25T11:27:53;5.70;;;2.00;;
62927;SDS011;51070;52.236;-0.892;2024-01-25T11:30:20;7.80;;;2.00;;
62927;SDS011;51070;52.236;-0.892;2024-01-25T11:32:46;4.80;;;2.50;;
62927;SDS011;51070;52.236;-0.892;2024-01-25T11:35:12;2.30;;;1.80;;
62927;SDS011;51070;52.236;-0.892;2024-01-25T11:37:42;4.40;;;1.70;;
62927;SDS011;51070;52.236;-0.892;2024-01-25T11:40:11;6.00;;;2.00;;
62927;SDS011;51070;52.236;-0.892;2024-01-25T11:42:38;5.90;;;1.60;;
62927;SDS011;51070;52.236;-0.892;2024-01-25T11:45:05;3.10;;;1.80;;
62927;SDS011;51070;52.236;-0.892;2024-01-25T11:47:34;5.10;;;1.60;;
62927;SDS011;51070;52.236;-0.892;2024-01-25T11:50:00;4.60;;;1.90;;
62927;SDS011;51070;52.236;-0.892;2024-01-25T11:52:27;7.30;;;2.30;;
62927;SDS011;51070;52.236;-0.892;2024-01-25T11:54:52;4.30;;;1.60;;
62927;SDS011;51070;52.236;-0.892;2024-01-25T11:57:18;6.70;;;1.90;;
62927;SDS011;51070;52.236;-0.892;2024-01-25T11:59:44;4.20;;;1.60;;
62927;SDS011;51070;52.236;-0.892;2024-01-25T12:02:11;3.00;;;1.40;;
62927;SDS011;51070;52.236;-0.892;2024-01-25T12:04:39;4.30;;;1.80;;
62927;SDS011;51070;52.236;-0.892;2024-01-25T12:07:04;4.20;;;1.20;;
62927;SDS011;51070;52.236;-0.892;2024-01-25T12:09:30;4.80;;;1.80;;
62927;SDS011;51070;52.236;-0.892;2024-01-25T12:11:55;7.30;;;1.70;;
62927;SDS011;51070;52.236;-0.892;2024-01-25T12:14:23;7.00;;;1.80;;
62927;SDS011;51070;52.236;-0.892;2024-01-25T12:16:49;2.70;;;1.10;;
62927;SDS011;51070;52.236;-0.892;2024-01-25T12:19:15;4.00;;;1.80;;
62927;SDS011;51070;52.236;-0.892;2024-01-25T12:21:43;8.00;;;1.90;;
62927;SDS011;51070;52.236;-0.892;2024-01-25T12:26:35;2.40;;;1.20;;
62927;SDS011;51070;52.236;-0.892;2024-01-25T12:29:01;3.00;;;1.20;;
62927;SDS011;51070;52.236;-0.892;2024-01-25T12:31:28;4.40;;;1.20;;
62927;SDS011;51070;52.236;-0.892;2024-01-25T12:33:53;2.60;;;1.10;;
62927;SDS011;51070;52.236;-0.892;2024-01-25T12:36:19;4.70;;;1.40;;
62927;SDS011;51070;52.236;-0.892;2024-01-25T12:38:44;5.60;;;1.70;;
62927;SDS011;51070;52.236;-0.892;2024-01-25T12:41:10;6.40;;;1.80;;
62927;SDS011;51070;52.236;-0.892;2024-01-25T12:43:35;2.70;;;1.00;;
62927;SDS011;51070;52.236;-0.892;2024-01-25T12:46:01;7.40;;;1.80;;
62927;SDS011;51070;52.236;-0.892;2024-01-25T12:48:27;3.90;;;2.00;;
62927;SDS011;51070;52.236;-0.892;2024-01-25T12:50:52;5.30;;;1.50;;
62927;SDS011;51070;52.236;-0.892;2024-01-25T12:53:17;2.40;;;1.20;;
62927;SDS011;51070;52.236;-0.892;2024-01-25T12:55:43;6.30;;;1.70;;
62927;SDS011;51070;52.236;-0.892;2024-01-25T12:58:09;4.40;;;1.40;;
62927;SDS011;51070;52.236;-0.892;2024-01-25T13:00:34;3.40;;;1.50;;
62927;SDS011;51070;52.236;-0.892;2024-01-25T13:03:00;5.50;;;1.10;;
62927;SDS011;51070;52.236;-0.892;2024-01-25T13:05:28;3.20;;;1.10;;
62927;SDS011;51070;52.236;-0.892;2024-01-25T13:07:59;5.00;;;1.70;;
62927;SDS011;51070;52.236;-0.892;2024-01-25T13:10:26;3.20;;;0.90;;
62927;SDS011;51070;52.236;-0.892;2024-01-25T13:12:52;5.50;;;1.70;;
62927;SDS011;51070;52.236;-0.892;2024-01-25T13:15:17;5.10;;;1.20;;
62927;SDS011;51070;52.236;-0.892;2024-01-25T13:17:43;4.10;;;1.10;;
62927;SDS011;51070;52.236;-0.892;2024-01-25T13:20:09;4.70;;;1.70;;
62927;SDS011;51070;52.236;-0.892;2024-01-25T13:22:35;4.90;;;1.30;;
62927;SDS011;51070;52.236;-0.892;2024-01-25T13:25:01;6.60;;;1.30;;
62927;SDS011;51070;52.236;-0.892;2024-01-25T13:27:27;7.20;;;1.50;;
62927;SDS011;51070;52.236;-0.892;2024-01-25T13:29:53;5.70;;;1.30;;
62927;SDS011;51070;52.236;-0.892;2024-01-25T13:32:19;4.50;;;1.30;;
62927;SDS011;51070;52.236;-0.892;2024-01-25T13:34:45;3.70;;;1.50;;
62927;SDS011;51070;52.236;-0.892;2024-01-25T13:37:11;4.20;;;1.40;;
62927;SDS011;51070;52.236;-0.892;2024-01-25T13:39:36;2.50;;;1.00;;
62927;SDS011;51070;52.236;-0.892;2024-01-25T13:42:02;4.00;;;1.50;;
62927;SDS011;51070;52.236;-0.892;2024-01-25T13:44:28;6.60;;;1.90;;
62927;SDS011;51070;52.236;-0.892;2024-01-25T13:46:54;4.40;;;1.10;;
62927;SDS011;51070;52.236;-0.892;2024-01-25T13:49:21;3.60;;;1.10;;
62927;SDS011;51070;52.236;-0.892;2024-01-25T13:51:47;4.70;;;1.30;;
62927;SDS011;51070;52.236;-0.892;2024-01-25T13:54:13;6.50;;;1.20;;
62927;SDS011;51070;52.236;-0.892;2024-01-25T13:56:41;6.00;;;1.30;;
62927;SDS011;51070;52.236;-0.892;2024-01-25T13:59:06;5.00;;;1.30;;
62927;SDS011;51070;52.236;-0.892;2024-01-25T14:01:32;6.00;;;1.60;;
62927;SDS011;51070;52.236;-0.892;2024-01-25T14:03:58;5.10;;;1.10;;
62927;SDS011;51070;52.236;-0.892;2024-01-25T14:06:24;7.10;;;2.00;;
62927;SDS011;51070;52.236;-0.892;2024-01-25T14:08:49;6.50;;;1.50;;
62927;SDS011;51070;52.236;-0.892;2024-01-25T14:11:15;4.70;;;1.40;;
62927;SDS011;51070;52.236;-0.892;2024-01-25T14:13:41;3.60;;;1.80;;
62927;SDS011;51070;52.236;-0.892;2024-01-25T14:16:07;6.80;;;1.70;;
62927;SDS011;51070;52.236;-0.892;2024-01-25T14:18:39;5.70;;;1.60;;
62927;SDS011;51070;52.236;-0.892;2024-01-25T14:21:05;5.30;;;1.30;;
62927;SDS011;51070;52.236;-0.892;2024-01-25T14:23:30;4.30;;;1.40;;
62927;SDS011;51070;52.236;-0.892;2024-01-25T14:25:56;3.80;;;1.80;;
62927;SDS011;51070;52.236;-0.892;2024-01-25T14:28:21;6.80;;;2.10;;